Darstellungsparameter: Aktuell verwendete Einstellungen:
Skalierung der Graphiken ... ?
xyx+y,   Skalierungsfaktor:      Skalierung: Modus: x, Faktor: 1
Darstellungszeitraum ... ?
Vom - - bis: - -   Zeitraum: 16.05.2021 - 16.05.2021
Min/Max/Avg-Anzeige ... ?
Zeige MMA aktuell
Zeige MMA Monat
Zeige MMA alles
Zeige --A aktuell
Zeige --A Monat
Zeige --A alles
Keine MMA-Anzeige
MMA:
Minimum Maximum Average (ber die Originaldaten)
MMA-Basis: 16.05.2021 - 16.05.2021
Quicknavigation für Darstellung... ?
Tage:      1T, 2T, 3T, 5T -1T -2T -3T -5T +1T +2T +3T +5T
Wochen: 1W, 2W, 3W -1W -2W -3W +1W +2W +3W
Monate: 1M, 3M, 6M -1M -3M -6M +1M +3M +6M
Jahre:    1J, 3J, 5J, 10J -1J -3J -5J -10J +1J +3J +5J +10J
Nutze für die Darstellung ... ?
Originaldaten oder Mittelwerte auf ...
Stundenbasis Tagesbasis Wochenbasis
Monatsbasis Jahresbasis      Datenbasis: Original-Daten
Darstellen als:
Statistik (Auto) Statistik J:M      Darstellung:

Der gewünschte Datumsbereich war nicht gültig/verfügbar und wurde korrigiert....
Das angegebene Enddatum (21.04.2025 23:59:59) liegt in der Zukunft.
Das angegebene Startdatum (01.04.2025 00:00:00) liegt in der Zukunft.


Zur Graphik,    zurück zur Übersicht aller Sensoren.
 
Tabellarische Datenbersicht: ?
 
Sensor: Nr:Datum:Temp:Abs-Feuchte:Windchill:Wind:
Aussen-T/F 1 16-05-2021 02:00:00 8.3 C 7.92 g/m*3 8.3 C 1.6 km/h
2 16-05-2021 02:05:00 8.3 C 7.92 g/m*3 8.3 C 4.8 km/h
3 16-05-2021 02:10:00 8.3 C 7.92 g/m*3 8.3 C 1.6 km/h
4 16-05-2021 02:15:00 8.3 C 7.92 g/m*3 8.3 C 3.2 km/h
5 16-05-2021 02:20:00 8.3 C 7.92 g/m*3 8.3 C 3.2 km/h
6 16-05-2021 02:25:00 8.3 C 7.92 g/m*3 8.3 C 3.2 km/h
7 16-05-2021 02:30:00 8.4 C 8.06 g/m*3 8.4 C 4.8 km/h
8 16-05-2021 02:35:00 8.4 C 8.06 g/m*3 8.4 C 4.8 km/h
9 16-05-2021 02:40:00 8.5 C 8.11 g/m*3 8.5 C 3.2 km/h
10 16-05-2021 02:45:00 8.5 C 8.11 g/m*3 8.5 C 4.8 km/h
11 16-05-2021 02:50:00 8.5 C 8.11 g/m*3 8.5 C 4.8 km/h
12 16-05-2021 02:55:00 8.5 C 8.11 g/m*3 8.5 C 3.2 km/h
13 16-05-2021 03:00:00 8.4 C 8.06 g/m*3 8.4 C 3.2 km/h
14 16-05-2021 03:05:00 8.4 C 8.06 g/m*3 8.4 C 3.2 km/h
15 16-05-2021 03:10:00 8.4 C 8.06 g/m*3 8.4 C 4.8 km/h
16 16-05-2021 03:15:00 8.4 C 8.06 g/m*3 8.4 C 3.2 km/h
17 16-05-2021 03:20:00 8.4 C 8.06 g/m*3 8.4 C 3.2 km/h
18 16-05-2021 03:25:00 8.4 C 8.06 g/m*3 8.4 C 4.8 km/h
19 16-05-2021 03:30:00 8.5 C 8.11 g/m*3 8.5 C 4.8 km/h
20 16-05-2021 03:35:00 8.5 C 8.11 g/m*3 8.5 C 3.2 km/h
21 16-05-2021 03:40:00 8.6 C 8.16 g/m*3 8.6 C 4.8 km/h
22 16-05-2021 03:45:00 8.7 C 8.22 g/m*3 8.7 C 4.8 km/h
23 16-05-2021 03:50:00 8.8 C 8.36 g/m*3 7.98 C 6.4 km/h
24 16-05-2021 03:55:00 8.9 C 8.41 g/m*3 8.9 C 4.8 km/h
25 16-05-2021 04:00:00 9 C 8.46 g/m*3 9 C 4.8 km/h
Sensor: Nr:Datum:Temp:Abs-Feuchte:Windchill:Wind:
Aussen-T/F 26 16-05-2021 04:05:00 9.1 C 8.52 g/m*3 9.1 C 3.2 km/h
27 16-05-2021 04:10:00 9.1 C 8.52 g/m*3 7.93 C 8.1 km/h
28 16-05-2021 04:15:00 9.2 C 8.57 g/m*3 8.05 C 8.1 km/h
29 16-05-2021 04:20:00 9.3 C 8.63 g/m*3 8.16 C 8.1 km/h
30 16-05-2021 04:25:00 9.4 C 8.59 g/m*3 8.68 C 6.4 km/h
31 16-05-2021 04:30:00 9.4 C 8.59 g/m*3 9.4 C 3.2 km/h
32 16-05-2021 04:35:00 9.4 C 8.59 g/m*3 8.68 C 6.4 km/h
33 16-05-2021 04:40:00 9.3 C 8.54 g/m*3 9.3 C 3.2 km/h
34 16-05-2021 04:45:00 9.2 C 8.39 g/m*3 9.2 C 3.2 km/h
35 16-05-2021 04:50:00 9.1 C 8.34 g/m*3 9.1 C 3.2 km/h
36 16-05-2021 04:55:00 8.9 C 8.23 g/m*3 8.9 C 3.2 km/h
37 16-05-2021 05:00:00 8.9 C 8.23 g/m*3 8.9 C 3.2 km/h
38 16-05-2021 05:05:00 8.8 C 8.18 g/m*3 8.8 C 0 km/h
39 16-05-2021 05:10:00 8.7 C 8.13 g/m*3 8.7 C 1.6 km/h
40 16-05-2021 05:15:00 8.7 C 8.13 g/m*3 8.7 C 1.6 km/h
41 16-05-2021 05:20:00 8.7 C 8.22 g/m*3 8.7 C 0 km/h
42 16-05-2021 05:25:00 8.7 C 8.22 g/m*3 8.7 C 1.6 km/h
43 16-05-2021 05:30:00 8.7 C 8.22 g/m*3 8.7 C 1.6 km/h
44 16-05-2021 05:35:00 8.7 C 8.22 g/m*3 8.7 C 1.6 km/h
45 16-05-2021 05:40:00 8.7 C 8.22 g/m*3 8.7 C 3.2 km/h
46 16-05-2021 05:45:00 8.7 C 8.22 g/m*3 8.7 C 0 km/h
47 16-05-2021 05:50:00 8.8 C 8.27 g/m*3 8.8 C 0 km/h
48 16-05-2021 05:55:00 8.8 C 8.27 g/m*3 8.8 C 0 km/h
49 16-05-2021 06:00:00 8.9 C 8.32 g/m*3 8.9 C 0 km/h
50 16-05-2021 06:05:00 8.9 C 8.32 g/m*3 8.9 C 0 km/h
Sensor: Nr:Datum:Temp:Abs-Feuchte:Windchill:Wind:
Aussen-T/F 51 16-05-2021 06:10:00 9 C 8.38 g/m*3 9 C 0 km/h
52 16-05-2021 06:15:00 9 C 8.38 g/m*3 9 C 3.2 km/h
53 16-05-2021 06:20:00 9.1 C 8.43 g/m*3 9.1 C 1.6 km/h
54 16-05-2021 06:25:00 9.1 C 8.43 g/m*3 9.1 C 1.6 km/h
55 16-05-2021 06:30:00 9.1 C 8.52 g/m*3 9.1 C 3.2 km/h
56 16-05-2021 06:35:00 9.2 C 8.57 g/m*3 9.2 C 0 km/h
57 16-05-2021 06:40:00 9.2 C 8.57 g/m*3 9.2 C 1.6 km/h
58 16-05-2021 06:45:00 9.3 C 8.63 g/m*3 9.3 C 0 km/h
59 16-05-2021 06:50:00 9.4 C 8.68 g/m*3 9.4 C 0 km/h
60 16-05-2021 06:55:00 9.6 C 8.79 g/m*3 9.6 C 0 km/h
61 16-05-2021 07:00:00 9.7 C 8.85 g/m*3 9.7 C 0 km/h
62 16-05-2021 07:05:00 9.8 C 8.91 g/m*3 9.8 C 0 km/h
63 16-05-2021 07:10:00 9.9 C 8.96 g/m*3 9.9 C 0 km/h
64 16-05-2021 07:15:00 10 C 9.02 g/m*3 10 C 1.6 km/h
65 16-05-2021 07:20:00 10.2 C 9.14 g/m*3 10.2 C 1.6 km/h
66 16-05-2021 07:25:00 10.3 C 9.19 g/m*3 10.3 C 1.6 km/h
67 16-05-2021 07:30:00 10.4 C 9.25 g/m*3 10.4 C 0 km/h
68 16-05-2021 07:35:00 10.5 C 9.21 g/m*3 10.5 C 3.2 km/h
69 16-05-2021 07:40:00 10.6 C 9.27 g/m*3 10.6 C 0 km/h
70 16-05-2021 07:45:00 10.6 C 9.17 g/m*3 10.6 C 3.2 km/h
71 16-05-2021 07:50:00 10.7 C 9.33 g/m*3 10.7 C 0 km/h
72 16-05-2021 07:55:00 10.7 C 9.33 g/m*3 10.7 C 0 km/h
73 16-05-2021 08:00:00 10.7 C 9.33 g/m*3 10.7 C 0 km/h
74 16-05-2021 08:05:00 10.8 C 9.39 g/m*3 10.8 C 0 km/h
75 16-05-2021 08:10:00 10.8 C 9.19 g/m*3 10.8 C 0 km/h
Sensor: Nr:Datum:Temp:Abs-Feuchte:Windchill:Wind:
Aussen-T/F 76 16-05-2021 08:15:00 10.8 C 9.19 g/m*3 10.8 C 0 km/h
77 16-05-2021 08:20:00 10.8 C 9.19 g/m*3 10.8 C 0 km/h
78 16-05-2021 08:25:00 10.8 C 9.19 g/m*3 10.8 C 0 km/h
79 16-05-2021 08:30:00 10.9 C 9.25 g/m*3 10.9 C 0 km/h

Legende:
   Min
   Max


Maximal/Minimal-Werte vom 16.05.2021 - 16.05.2021

Sensor Min Max Avg
Temp
(Aussen-T/F)
8.3 °C
16-05-2021  02:00:00
10.9 °C
16-05-2021  08:30:00
9.2 °C
Abs-Feuchte
(Aussen-T/F)
7.92 g/m*3
16-05-2021  02:00:00
9.39 g/m*3
16-05-2021  08:05:00
8.38 g/m*3
Windchill
(Aussen-T/F)
7.93 C
16-05-2021  04:10:00
10.9 C
16-05-2021  08:30:00
9.02 C

Die Daten stammen von einer Davis Vantage Pro 2 Wetter-Station und werden unter Linux mit der Software wview2wettercgi und aufbereitet. Alle Angaben erfolgen ohne Gewähr für ihre Vollständigkeit oder Richtigkeit.
Kontakt: Rainer Krienke krienke@uni-koblenz.de . Meine Webseiten an der Uni Koblenz oder privat.
Version: $Revision: 0.78 $